Terminal Aerodrome Forecast
Issued by NWS

Home | Current Version | Previous Version | Text Only | Print | Product List | Glossary On
Versions: 1 2 3 4 5 6 7 8 9 10 11 12 13 14 15 16
000
FTUS43 KDLH 232006 AAA
TAFBRD
TAF AMD
KBRD 232006Z 2320/2418 16010G17KT P6SM -RA OVC025
     FM232200 15008KT 6SM -RA OVC015
     FM232300 14007KT 3SM -RA OVC007
     FM240300 VRB03KT 3SM -RA OVC003
     FM240900 36006KT P6SM OVC008
     FM241500 36010KT P6SM BKN015=

USA.gov is the U.S. government's official web portal to all federal, state and local government web resources and services.